sensor_id;sensor_type;location;lat;lon;timestamp;P1;durP1;ratioP1;P2;durP2;ratioP2
769;SDS011;368;48.698;9.116;2022-11-02T00:01:00;14.90;;;6.57;;
769;SDS011;368;48.698;9.116;2022-11-02T00:03:35;9.17;;;6.60;;
769;SDS011;368;48.698;9.116;2022-11-02T00:06:01;11.40;;;6.30;;
769;SDS011;368;48.698;9.116;2022-11-02T00:08:28;10.03;;;7.30;;
769;SDS011;368;48.698;9.116;2022-11-02T00:10:55;10.23;;;7.27;;
769;SDS011;368;48.698;9.116;2022-11-02T00:13:22;8.33;;;5.60;;
769;SDS011;368;48.698;9.116;2022-11-02T00:15:49;9.50;;;6.00;;
769;SDS011;368;48.698;9.116;2022-11-02T00:18:15;8.93;;;5.57;;
769;SDS011;368;48.698;9.116;2022-11-02T00:20:44;10.40;;;6.37;;
769;SDS011;368;48.698;9.116;2022-11-02T00:23:11;8.03;;;4.93;;
769;SDS011;368;48.698;9.116;2022-11-02T00:25:39;10.50;;;5.60;;
769;SDS011;368;48.698;9.116;2022-11-02T00:28:09;10.37;;;6.97;;
769;SDS011;368;48.698;9.116;2022-11-02T00:30:36;8.53;;;7.47;;
769;SDS011;368;48.698;9.116;2022-11-02T00:33:03;16.10;;;9.33;;
769;SDS011;368;48.698;9.116;2022-11-02T00:35:30;12.90;;;8.43;;
769;SDS011;368;48.698;9.116;2022-11-02T00:37:59;9.00;;;8.10;;
769;SDS011;368;48.698;9.116;2022-11-02T00:40:26;9.07;;;6.90;;
769;SDS011;368;48.698;9.116;2022-11-02T00:42:53;11.90;;;7.00;;
769;SDS011;368;48.698;9.116;2022-11-02T00:45:20;8.73;;;6.23;;
769;SDS011;368;48.698;9.116;2022-11-02T00:47:47;6.47;;;4.93;;
769;SDS011;368;48.698;9.116;2022-11-02T00:50:14;5.00;;;4.57;;
769;SDS011;368;48.698;9.116;2022-11-02T00:52:41;6.57;;;4.60;;
769;SDS011;368;48.698;9.116;2022-11-02T00:55:10;7.23;;;4.00;;
769;SDS011;368;48.698;9.116;2022-11-02T00:57:37;7.23;;;4.23;;
769;SDS011;368;48.698;9.116;2022-11-02T01:00:05;9.90;;;4.27;;
769;SDS011;368;48.698;9.116;2022-11-02T01:02:34;5.27;;;3.10;;
769;SDS011;368;48.698;9.116;2022-11-02T01:05:02;5.53;;;3.00;;
769;SDS011;368;48.698;9.116;2022-11-02T01:07:29;6.60;;;3.00;;
769;SDS011;368;48.698;9.116;2022-11-02T01:09:56;4.60;;;2.87;;
769;SDS011;368;48.698;9.116;2022-11-02T01:12:24;4.33;;;2.50;;
769;SDS011;368;48.698;9.116;2022-11-02T01:14:51;4.93;;;2.87;;
769;SDS011;368;48.698;9.116;2022-11-02T01:17:18;3.23;;;2.37;;
769;SDS011;368;48.698;9.116;2022-11-02T01:19:45;3.50;;;2.30;;
769;SDS011;368;48.698;9.116;2022-11-02T01:22:12;6.37;;;2.93;;
769;SDS011;368;48.698;9.116;2022-11-02T01:24:39;4.57;;;3.00;;
769;SDS011;368;48.698;9.116;2022-11-02T01:27:06;2.90;;;2.40;;
769;SDS011;368;48.698;9.116;2022-11-02T01:29:34;8.90;;;3.80;;
769;SDS011;368;48.698;9.116;2022-11-02T01:32:01;5.47;;;3.17;;
769;SDS011;368;48.698;9.116;2022-11-02T01:34:27;6.03;;;2.60;;
769;SDS011;368;48.698;9.116;2022-11-02T01:36:54;4.67;;;2.80;;
769;SDS011;368;48.698;9.116;2022-11-02T01:39:21;5.23;;;3.47;;
769;SDS011;368;48.698;9.116;2022-11-02T01:41:49;5.17;;;2.93;;
769;SDS011;368;48.698;9.116;2022-11-02T01:44:25;4.93;;;3.80;;
769;SDS011;368;48.698;9.116;2022-11-02T01:46:56;8.77;;;3.87;;
769;SDS011;368;48.698;9.116;2022-11-02T01:49:26;7.10;;;3.30;;
769;SDS011;368;48.698;9.116;2022-11-02T01:51:55;5.40;;;3.90;;
769;SDS011;368;48.698;9.116;2022-11-02T01:54:28;6.67;;;3.20;;
769;SDS011;368;48.698;9.116;2022-11-02T01:57:02;7.63;;;3.80;;
769;SDS011;368;48.698;9.116;2022-11-02T01:59:32;4.70;;;3.37;;
769;SDS011;368;48.698;9.116;2022-11-02T02:02:03;3.53;;;2.80;;
769;SDS011;368;48.698;9.116;2022-11-02T02:04:36;6.40;;;2.80;;
769;SDS011;368;48.698;9.116;2022-11-02T02:07:04;6.23;;;3.17;;
769;SDS011;368;48.698;9.116;2022-11-02T02:09:31;4.30;;;2.93;;
769;SDS011;368;48.698;9.116;2022-11-02T02:11:59;4.50;;;3.20;;
769;SDS011;368;48.698;9.116;2022-11-02T02:14:26;3.57;;;2.80;;
769;SDS011;368;48.698;9.116;2022-11-02T02:17:00;5.00;;;2.93;;
769;SDS011;368;48.698;9.116;2022-11-02T02:19:39;5.93;;;3.40;;
769;SDS011;368;48.698;9.116;2022-11-02T02:22:12;4.33;;;2.87;;
769;SDS011;368;48.698;9.116;2022-11-02T02:24:49;3.37;;;2.83;;
769;SDS011;368;48.698;9.116;2022-11-02T02:27:26;3.27;;;2.97;;
769;SDS011;368;48.698;9.116;2022-11-02T02:30:00;3.50;;;2.63;;
769;SDS011;368;48.698;9.116;2022-11-02T02:32:32;5.07;;;2.50;;
769;SDS011;368;48.698;9.116;2022-11-02T02:35:08;4.67;;;2.60;;
769;SDS011;368;48.698;9.116;2022-11-02T02:37:39;3.20;;;2.67;;
769;SDS011;368;48.698;9.116;2022-11-02T02:40:12;2.87;;;2.50;;
769;SDS011;368;48.698;9.116;2022-11-02T02:42:43;4.57;;;3.37;;
769;SDS011;368;48.698;9.116;2022-11-02T02:45:16;5.40;;;2.57;;
769;SDS011;368;48.698;9.116;2022-11-02T02:47:48;4.03;;;3.23;;
769;SDS011;368;48.698;9.116;2022-11-02T02:50:21;3.27;;;2.60;;
769;SDS011;368;48.698;9.116;2022-11-02T02:52:51;2.90;;;2.23;;
769;SDS011;368;48.698;9.116;2022-11-02T02:55:20;5.17;;;2.80;;
769;SDS011;368;48.698;9.116;2022-11-02T02:57:49;5.30;;;2.73;;
769;SDS011;368;48.698;9.116;2022-11-02T03:00:20;4.30;;;3.00;;
769;SDS011;368;48.698;9.116;2022-11-02T03:02:47;4.67;;;2.77;;
769;SDS011;368;48.698;9.116;2022-11-02T03:05:26;4.07;;;2.37;;
769;SDS011;368;48.698;9.116;2022-11-02T03:07:55;3.80;;;2.50;;
769;SDS011;368;48.698;9.116;2022-11-02T03:10:27;2.80;;;2.43;;
769;SDS011;368;48.698;9.116;2022-11-02T03:13:01;4.83;;;3.07;;
769;SDS011;368;48.698;9.116;2022-11-02T03:15:38;4.97;;;2.70;;
769;SDS011;368;48.698;9.116;2022-11-02T03:18:09;3.67;;;2.60;;
769;SDS011;368;48.698;9.116;2022-11-02T03:20:46;5.07;;;2.53;;
769;SDS011;368;48.698;9.116;2022-11-02T03:23:23;2.70;;;2.50;;
769;SDS011;368;48.698;9.116;2022-11-02T03:25:55;2.97;;;2.57;;
769;SDS011;368;48.698;9.116;2022-11-02T03:28:33;2.80;;;2.10;;
769;SDS011;368;48.698;9.116;2022-11-02T03:31:10;5.10;;;2.53;;
769;SDS011;368;48.698;9.116;2022-11-02T03:33:42;4.20;;;2.50;;
769;SDS011;368;48.698;9.116;2022-11-02T03:36:14;3.93;;;2.60;;
769;SDS011;368;48.698;9.116;2022-11-02T03:38:44;5.97;;;2.40;;
769;SDS011;368;48.698;9.116;2022-11-02T03:41:14;2.90;;;2.43;;
769;SDS011;368;48.698;9.116;2022-11-02T03:43:43;4.30;;;2.97;;
769;SDS011;368;48.698;9.116;2022-11-02T03:46:14;4.50;;;2.37;;
769;SDS011;368;48.698;9.116;2022-11-02T03:48:44;3.10;;;2.67;;
769;SDS011;368;48.698;9.116;2022-11-02T03:51:13;4.57;;;2.10;;
769;SDS011;368;48.698;9.116;2022-11-02T03:53:46;2.87;;;2.27;;
769;SDS011;368;48.698;9.116;2022-11-02T03:56:16;5.83;;;2.97;;
769;SDS011;368;48.698;9.116;2022-11-02T03:58:47;3.60;;;2.33;;
769;SDS011;368;48.698;9.116;2022-11-02T04:01:15;7.40;;;2.33;;
769;SDS011;368;48.698;9.116;2022-11-02T04:03:44;4.90;;;2.20;;
769;SDS011;368;48.698;9.116;2022-11-02T04:06:12;3.73;;;2.23;;
769;SDS011;368;48.698;9.116;2022-11-02T04:08:40;9.27;;;2.90;;
769;SDS011;368;48.698;9.116;2022-11-02T04:11:08;3.57;;;2.47;;
769;SDS011;368;48.698;9.116;2022-11-02T04:13:53;4.33;;;2.40;;
769;SDS011;368;48.698;9.116;2022-11-02T04:16:39;5.97;;;2.50;;
769;SDS011;368;48.698;9.116;2022-11-02T04:19:06;5.90;;;2.60;;
769;SDS011;368;48.698;9.116;2022-11-02T04:21:51;6.10;;;2.77;;
769;SDS011;368;48.698;9.116;2022-11-02T04:24:36;4.27;;;2.60;;
769;SDS011;368;48.698;9.116;2022-11-02T04:27:20;3.13;;;2.37;;
769;SDS011;368;48.698;9.116;2022-11-02T04:29:47;4.03;;;2.60;;
769;SDS011;368;48.698;9.116;2022-11-02T04:32:16;4.63;;;2.77;;
769;SDS011;368;48.698;9.116;2022-11-02T04:35:04;6.80;;;2.77;;
769;SDS011;368;48.698;9.116;2022-11-02T04:37:30;3.07;;;2.33;;
769;SDS011;368;48.698;9.116;2022-11-02T04:40:20;6.07;;;2.67;;
769;SDS011;368;48.698;9.116;2022-11-02T04:42:47;4.87;;;2.37;;
769;SDS011;368;48.698;9.116;2022-11-02T04:45:14;3.03;;;2.30;;
769;SDS011;368;48.698;9.116;2022-11-02T04:47:42;6.03;;;2.67;;
769;SDS011;368;48.698;9.116;2022-11-02T04:50:09;4.53;;;2.20;;
769;SDS011;368;48.698;9.116;2022-11-02T04:52:36;4.20;;;2.53;;
769;SDS011;368;48.698;9.116;2022-11-02T04:55:03;5.23;;;2.43;;
769;SDS011;368;48.698;9.116;2022-11-02T04:57:31;5.50;;;2.37;;
769;SDS011;368;48.698;9.116;2022-11-02T04:59:58;8.07;;;2.30;;
769;SDS011;368;48.698;9.116;2022-11-02T05:02:25;4.33;;;2.63;;
769;SDS011;368;48.698;9.116;2022-11-02T05:04:53;4.80;;;2.80;;
769;SDS011;368;48.698;9.116;2022-11-02T05:07:20;7.33;;;2.50;;
769;SDS011;368;48.698;9.116;2022-11-02T05:09:47;4.73;;;2.07;;
769;SDS011;368;48.698;9.116;2022-11-02T05:12:13;9.20;;;2.50;;
769;SDS011;368;48.698;9.116;2022-11-02T05:14:40;2.90;;;2.13;;
769;SDS011;368;48.698;9.116;2022-11-02T05:17:07;5.40;;;2.57;;
769;SDS011;368;48.698;9.116;2022-11-02T05:19:34;2.90;;;2.30;;
769;SDS011;368;48.698;9.116;2022-11-02T05:22:02;4.40;;;2.50;;
769;SDS011;368;48.698;9.116;2022-11-02T05:24:28;6.27;;;2.20;;
769;SDS011;368;48.698;9.116;2022-11-02T05:26:55;4.40;;;2.30;;
769;SDS011;368;48.698;9.116;2022-11-02T05:29:24;2.93;;;2.33;;
769;SDS011;368;48.698;9.116;2022-11-02T05:31:51;7.60;;;3.07;;
769;SDS011;368;48.698;9.116;2022-11-02T05:34:18;5.47;;;2.53;;
769;SDS011;368;48.698;9.116;2022-11-02T05:36:46;4.73;;;2.47;;
769;SDS011;368;48.698;9.116;2022-11-02T05:39:14;3.20;;;2.90;;
769;SDS011;368;48.698;9.116;2022-11-02T05:41:41;3.60;;;2.33;;
769;SDS011;368;48.698;9.116;2022-11-02T05:44:08;3.73;;;2.43;;
769;SDS011;368;48.698;9.116;2022-11-02T05:46:35;6.60;;;2.40;;
769;SDS011;368;48.698;9.116;2022-11-02T05:49:02;2.87;;;2.50;;
769;SDS011;368;48.698;9.116;2022-11-02T05:51:28;3.23;;;2.80;;
769;SDS011;368;48.698;9.116;2022-11-02T05:53:55;6.70;;;2.73;;
769;SDS011;368;48.698;9.116;2022-11-02T05:56:23;13.50;;;3.20;;
769;SDS011;368;48.698;9.116;2022-11-02T05:58:52;4.40;;;2.50;;
769;SDS011;368;48.698;9.116;2022-11-02T06:01:19;3.30;;;2.30;;
769;SDS011;368;48.698;9.116;2022-11-02T06:03:46;3.47;;;2.10;;
769;SDS011;368;48.698;9.116;2022-11-02T06:06:13;9.67;;;3.00;;
769;SDS011;368;48.698;9.116;2022-11-02T06:08:39;3.70;;;2.70;;
769;SDS011;368;48.698;9.116;2022-11-02T06:11:07;4.43;;;2.53;;
769;SDS011;368;48.698;9.116;2022-11-02T06:13:36;5.93;;;2.60;;
769;SDS011;368;48.698;9.116;2022-11-02T06:16:04;4.93;;;2.23;;
769;SDS011;368;48.698;9.116;2022-11-02T06:18:33;11.00;;;2.70;;
769;SDS011;368;48.698;9.116;2022-11-02T06:21:00;8.13;;;3.10;;
769;SDS011;368;48.698;9.116;2022-11-02T06:23:27;7.50;;;2.60;;
769;SDS011;368;48.698;9.116;2022-11-02T06:25:55;5.73;;;2.47;;
769;SDS011;368;48.698;9.116;2022-11-02T06:28:23;8.27;;;2.70;;
769;SDS011;368;48.698;9.116;2022-11-02T06:30:52;6.20;;;2.77;;
769;SDS011;368;48.698;9.116;2022-11-02T06:33:19;4.63;;;2.70;;
769;SDS011;368;48.698;9.116;2022-11-02T06:35:46;6.50;;;2.17;;
769;SDS011;368;48.698;9.116;2022-11-02T06:38:14;5.67;;;2.50;;
769;SDS011;368;48.698;9.116;2022-11-02T06:40:42;7.63;;;2.87;;
769;SDS011;368;48.698;9.116;2022-11-02T06:43:09;6.30;;;2.70;;
769;SDS011;368;48.698;9.116;2022-11-02T06:45:36;4.23;;;2.87;;
769;SDS011;368;48.698;9.116;2022-11-02T06:48:04;4.43;;;2.37;;
769;SDS011;368;48.698;9.116;2022-11-02T06:50:31;7.83;;;2.77;;
769;SDS011;368;48.698;9.116;2022-11-02T06:52:58;3.87;;;2.10;;
769;SDS011;368;48.698;9.116;2022-11-02T06:55:24;4.33;;;2.20;;
769;SDS011;368;48.698;9.116;2022-11-02T06:57:52;4.23;;;2.50;;
769;SDS011;368;48.698;9.116;2022-11-02T07:00:20;7.53;;;2.07;;
769;SDS011;368;48.698;9.116;2022-11-02T07:02:57;3.97;;;2.57;;
769;SDS011;368;48.698;9.116;2022-11-02T07:05:26;5.80;;;2.17;;
769;SDS011;368;48.698;9.116;2022-11-02T07:07:53;5.10;;;2.10;;
769;SDS011;368;48.698;9.116;2022-11-02T07:10:20;5.90;;;2.10;;
769;SDS011;368;48.698;9.116;2022-11-02T07:12:50;6.33;;;1.97;;
769;SDS011;368;48.698;9.116;2022-11-02T07:15:18;4.50;;;2.30;;
769;SDS011;368;48.698;9.116;2022-11-02T07:17:45;8.13;;;2.77;;
769;SDS011;368;48.698;9.116;2022-11-02T07:20:12;7.17;;;2.90;;
769;SDS011;368;48.698;9.116;2022-11-02T07:22:40;5.53;;;2.10;;
769;SDS011;368;48.698;9.116;2022-11-02T07:25:08;6.13;;;2.60;;
769;SDS011;368;48.698;9.116;2022-11-02T07:27:38;5.63;;;2.07;;
769;SDS011;368;48.698;9.116;2022-11-02T07:30:05;5.50;;;2.17;;
769;SDS011;368;48.698;9.116;2022-11-02T07:32:37;4.17;;;2.40;;
769;SDS011;368;48.698;9.116;2022-11-02T07:35:05;9.37;;;2.50;;
769;SDS011;368;48.698;9.116;2022-11-02T07:37:33;11.30;;;2.30;;
769;SDS011;368;48.698;9.116;2022-11-02T07:40:02;5.20;;;2.40;;
769;SDS011;368;48.698;9.116;2022-11-02T07:42:30;5.33;;;3.00;;
769;SDS011;368;48.698;9.116;2022-11-02T07:44:57;5.13;;;2.10;;
769;SDS011;368;48.698;9.116;2022-11-02T07:47:24;3.30;;;2.00;;
769;SDS011;368;48.698;9.116;2022-11-02T07:49:51;9.63;;;2.40;;
769;SDS011;368;48.698;9.116;2022-11-02T07:52:18;4.30;;;2.20;;
769;SDS011;368;48.698;9.116;2022-11-02T07:54:45;6.40;;;2.57;;
769;SDS011;368;48.698;9.116;2022-11-02T07:57:13;4.03;;;1.87;;
769;SDS011;368;48.698;9.116;2022-11-02T07:59:40;8.50;;;2.50;;
769;SDS011;368;48.698;9.116;2022-11-02T08:02:08;9.50;;;3.27;;
769;SDS011;368;48.698;9.116;2022-11-02T08:04:37;7.43;;;2.17;;
769;SDS011;368;48.698;9.116;2022-11-02T08:07:04;5.10;;;2.40;;
769;SDS011;368;48.698;9.116;2022-11-02T08:09:31;3.30;;;2.10;;
769;SDS011;368;48.698;9.116;2022-11-02T08:11:58;5.73;;;2.23;;
769;SDS011;368;48.698;9.116;2022-11-02T08:14:26;6.57;;;1.87;;
769;SDS011;368;48.698;9.116;2022-11-02T08:16:54;3.43;;;1.70;;
769;SDS011;368;48.698;9.116;2022-11-02T08:19:20;2.80;;;1.57;;
769;SDS011;368;48.698;9.116;2022-11-02T08:21:47;4.53;;;1.80;;
769;SDS011;368;48.698;9.116;2022-11-02T08:24:14;4.30;;;1.10;;
769;SDS011;368;48.698;9.116;2022-11-02T08:26:41;2.93;;;1.30;;
769;SDS011;368;48.698;9.116;2022-11-02T08:29:07;3.47;;;1.27;;
769;SDS011;368;48.698;9.116;2022-11-02T08:31:36;2.37;;;1.10;;
769;SDS011;368;48.698;9.116;2022-11-02T08:34:02;3.70;;;1.17;;
769;SDS011;368;48.698;9.116;2022-11-02T08:36:29;2.73;;;1.33;;
769;SDS011;368;48.698;9.116;2022-11-02T08:38:56;3.57;;;1.37;;
769;SDS011;368;48.698;9.116;2022-11-02T08:41:23;1.87;;;1.27;;
769;SDS011;368;48.698;9.116;2022-11-02T08:43:49;3.03;;;1.20;;
769;SDS011;368;48.698;9.116;2022-11-02T08:46:16;5.10;;;1.33;;
769;SDS011;368;48.698;9.116;2022-11-02T08:48:44;3.03;;;1.60;;
769;SDS011;368;48.698;9.116;2022-11-02T08:51:11;2.33;;;1.70;;
769;SDS011;368;48.698;9.116;2022-11-02T08:53:38;6.10;;;2.00;;
769;SDS011;368;48.698;9.116;2022-11-02T08:56:05;6.60;;;1.43;;
769;SDS011;368;48.698;9.116;2022-11-02T08:58:32;2.00;;;1.33;;
769;SDS011;368;48.698;9.116;2022-11-02T09:00:59;5.03;;;1.50;;
769;SDS011;368;48.698;9.116;2022-11-02T09:03:26;5.30;;;1.70;;
769;SDS011;368;48.698;9.116;2022-11-02T09:05:57;4.40;;;1.00;;
769;SDS011;368;48.698;9.116;2022-11-02T09:08:24;5.40;;;1.40;;
769;SDS011;368;48.698;9.116;2022-11-02T09:10:52;3.57;;;1.43;;
769;SDS011;368;48.698;9.116;2022-11-02T09:13:22;7.57;;;1.77;;
769;SDS011;368;48.698;9.116;2022-11-02T09:15:50;7.73;;;1.73;;
769;SDS011;368;48.698;9.116;2022-11-02T09:18:18;5.13;;;1.60;;
769;SDS011;368;48.698;9.116;2022-11-02T09:20:45;3.03;;;1.60;;
769;SDS011;368;48.698;9.116;2022-11-02T09:23:15;5.23;;;1.30;;
769;SDS011;368;48.698;9.116;2022-11-02T09:25:42;4.43;;;1.90;;
769;SDS011;368;48.698;9.116;2022-11-02T09:28:09;4.70;;;1.30;;
769;SDS011;368;48.698;9.116;2022-11-02T09:30:37;4.47;;;1.60;;
769;SDS011;368;48.698;9.116;2022-11-02T09:33:04;8.73;;;1.87;;
769;SDS011;368;48.698;9.116;2022-11-02T09:35:32;8.83;;;2.00;;
769;SDS011;368;48.698;9.116;2022-11-02T09:38:00;5.50;;;1.93;;
769;SDS011;368;48.698;9.116;2022-11-02T09:40:29;6.77;;;1.70;;
769;SDS011;368;48.698;9.116;2022-11-02T09:43:03;3.57;;;1.23;;
769;SDS011;368;48.698;9.116;2022-11-02T09:45:38;8.90;;;1.63;;
769;SDS011;368;48.698;9.116;2022-11-02T09:48:14;3.93;;;1.40;;
769;SDS011;368;48.698;9.116;2022-11-02T09:50:45;3.40;;;2.13;;
769;SDS011;368;48.698;9.116;2022-11-02T09:53:17;4.63;;;1.90;;
769;SDS011;368;48.698;9.116;2022-11-02T09:55:52;6.70;;;2.10;;
769;SDS011;368;48.698;9.116;2022-11-02T09:58:23;8.00;;;1.60;;
769;SDS011;368;48.698;9.116;2022-11-02T10:00:58;3.73;;;1.43;;
769;SDS011;368;48.698;9.116;2022-11-02T10:03:36;6.97;;;2.03;;
769;SDS011;368;48.698;9.116;2022-11-02T10:06:11;6.40;;;2.10;;
769;SDS011;368;48.698;9.116;2022-11-02T10:08:42;2.50;;;1.57;;
769;SDS011;368;48.698;9.116;2022-11-02T10:11:27;3.23;;;1.77;;
769;SDS011;368;48.698;9.116;2022-11-02T10:14:04;7.67;;;1.70;;
769;SDS011;368;48.698;9.116;2022-11-02T10:16:37;4.33;;;2.00;;
769;SDS011;368;48.698;9.116;2022-11-02T10:19:10;8.53;;;1.90;;
769;SDS011;368;48.698;9.116;2022-11-02T10:21:41;6.27;;;1.97;;
769;SDS011;368;48.698;9.116;2022-11-02T10:24:15;3.60;;;2.00;;
769;SDS011;368;48.698;9.116;2022-11-02T10:26:50;6.77;;;2.03;;
769;SDS011;368;48.698;9.116;2022-11-02T10:29:22;3.97;;;1.67;;
769;SDS011;368;48.698;9.116;2022-11-02T10:31:59;6.07;;;1.77;;
769;SDS011;368;48.698;9.116;2022-11-02T10:34:27;7.33;;;1.83;;
769;SDS011;368;48.698;9.116;2022-11-02T10:36:59;6.47;;;1.90;;
769;SDS011;368;48.698;9.116;2022-11-02T10:39:38;3.53;;;2.03;;
769;SDS011;368;48.698;9.116;2022-11-02T10:45:14;5.63;;;2.33;;
769;SDS011;368;48.698;9.116;2022-11-02T10:47:57;2.33;;;1.17;;
769;SDS011;368;48.698;9.116;2022-11-02T10:50:35;2.87;;;1.50;;
769;SDS011;368;48.698;9.116;2022-11-02T10:53:13;5.17;;;2.10;;
769;SDS011;368;48.698;9.116;2022-11-02T10:55:42;7.40;;;2.30;;
769;SDS011;368;48.698;9.116;2022-11-02T10:58:20;6.70;;;2.03;;
769;SDS011;368;48.698;9.116;2022-11-02T11:00:47;4.27;;;1.97;;
769;SDS011;368;48.698;9.116;2022-11-02T11:03:16;4.87;;;1.60;;
769;SDS011;368;48.698;9.116;2022-11-02T11:05:56;5.40;;;2.20;;
769;SDS011;368;48.698;9.116;2022-11-02T11:08:29;4.23;;;1.57;;
769;SDS011;368;48.698;9.116;2022-11-02T11:11:10;4.00;;;1.57;;
769;SDS011;368;48.698;9.116;2022-11-02T11:13:42;4.10;;;1.70;;
769;SDS011;368;48.698;9.116;2022-11-02T11:16:11;5.87;;;2.03;;
769;SDS011;368;48.698;9.116;2022-11-02T11:18:38;3.50;;;1.60;;
769;SDS011;368;48.698;9.116;2022-11-02T11:21:05;3.90;;;1.87;;
769;SDS011;368;48.698;9.116;2022-11-02T11:23:33;3.43;;;1.57;;
769;SDS011;368;48.698;9.116;2022-11-02T11:26:00;2.40;;;1.27;;
769;SDS011;368;48.698;9.116;2022-11-02T11:28:30;6.17;;;1.90;;
769;SDS011;368;48.698;9.116;2022-11-02T11:31:10;6.80;;;1.70;;
769;SDS011;368;48.698;9.116;2022-11-02T11:33:42;6.50;;;1.60;;
769;SDS011;368;48.698;9.116;2022-11-02T11:36:18;4.57;;;1.53;;
769;SDS011;368;48.698;9.116;2022-11-02T11:38:47;2.97;;;1.53;;
769;SDS011;368;48.698;9.116;2022-11-02T11:41:16;3.37;;;1.30;;
769;SDS011;368;48.698;9.116;2022-11-02T11:43:43;4.23;;;1.40;;
769;SDS011;368;48.698;9.116;2022-11-02T11:46:12;5.30;;;1.80;;
769;SDS011;368;48.698;9.116;2022-11-02T11:48:41;4.97;;;1.70;;
769;SDS011;368;48.698;9.116;2022-11-02T11:51:25;4.40;;;1.50;;
769;SDS011;368;48.698;9.116;2022-11-02T11:54:04;2.93;;;1.40;;
769;SDS011;368;48.698;9.116;2022-11-02T11:56:39;3.50;;;1.47;;
769;SDS011;368;48.698;9.116;2022-11-02T11:59:08;3.43;;;1.60;;
769;SDS011;368;48.698;9.116;2022-11-02T12:01:46;4.87;;;1.60;;
769;SDS011;368;48.698;9.116;2022-11-02T12:04:13;3.07;;;1.53;;
769;SDS011;368;48.698;9.116;2022-11-02T12:06:55;3.97;;;1.70;;
769;SDS011;368;48.698;9.116;2022-11-02T12:09:36;3.43;;;1.70;;
769;SDS011;368;48.698;9.116;2022-11-02T12:12:10;3.13;;;1.13;;
769;SDS011;368;48.698;9.116;2022-11-02T12:14:43;4.87;;;1.57;;
769;SDS011;368;48.698;9.116;2022-11-02T12:17:27;4.30;;;1.27;;
769;SDS011;368;48.698;9.116;2022-11-02T12:20:05;2.57;;;1.50;;
769;SDS011;368;48.698;9.116;2022-11-02T12:22:45;2.50;;;0.90;;
769;SDS011;368;48.698;9.116;2022-11-02T12:25:32;2.00;;;1.40;;
769;SDS011;368;48.698;9.116;2022-11-02T12:28:12;4.77;;;1.97;;
769;SDS011;368;48.698;9.116;2022-11-02T12:30:48;2.40;;;1.40;;
769;SDS011;368;48.698;9.116;2022-11-02T12:33:29;3.10;;;1.50;;
769;SDS011;368;48.698;9.116;2022-11-02T12:38:59;6.73;;;2.17;;
769;SDS011;368;48.698;9.116;2022-11-02T12:41:42;2.90;;;1.50;;
769;SDS011;368;48.698;9.116;2022-11-02T12:44:22;5.47;;;1.70;;
769;SDS011;368;48.698;9.116;2022-11-02T12:47:09;4.20;;;1.30;;
769;SDS011;368;48.698;9.116;2022-11-02T12:49:49;7.07;;;1.80;;
769;SDS011;368;48.698;9.116;2022-11-02T12:52:32;4.80;;;1.80;;
769;SDS011;368;48.698;9.116;2022-11-02T12:55:11;3.67;;;1.87;;
769;SDS011;368;48.698;9.116;2022-11-02T12:57:42;3.17;;;1.40;;
769;SDS011;368;48.698;9.116;2022-11-02T13:00:14;4.60;;;2.00;;
769;SDS011;368;48.698;9.116;2022-11-02T13:02:44;4.43;;;1.63;;
769;SDS011;368;48.698;9.116;2022-11-02T13:05:20;3.60;;;1.33;;
769;SDS011;368;48.698;9.116;2022-11-02T13:07:51;5.37;;;1.33;;
769;SDS011;368;48.698;9.116;2022-11-02T13:10:27;2.67;;;1.47;;
769;SDS011;368;48.698;9.116;2022-11-02T13:12:58;2.77;;;1.60;;
769;SDS011;368;48.698;9.116;2022-11-02T13:15:28;9.60;;;2.20;;
769;SDS011;368;48.698;9.116;2022-11-02T13:17:59;4.37;;;1.50;;
769;SDS011;368;48.698;9.116;2022-11-02T13:20:32;2.97;;;1.10;;
769;SDS011;368;48.698;9.116;2022-11-02T13:23:06;3.20;;;1.20;;
769;SDS011;368;48.698;9.116;2022-11-02T13:25:43;5.80;;;1.50;;
769;SDS011;368;48.698;9.116;2022-11-02T13:28:16;4.70;;;1.30;;
769;SDS011;368;48.698;9.116;2022-11-02T13:30:49;3.07;;;1.60;;
769;SDS011;368;48.698;9.116;2022-11-02T13:33:19;4.47;;;1.50;;
769;SDS011;368;48.698;9.116;2022-11-02T13:35:51;4.33;;;1.30;;
769;SDS011;368;48.698;9.116;2022-11-02T13:38:23;4.77;;;1.90;;
769;SDS011;368;48.698;9.116;2022-11-02T13:40:56;3.60;;;1.37;;
769;SDS011;368;48.698;9.116;2022-11-02T13:43:47;9.50;;;1.73;;
769;SDS011;368;48.698;9.116;2022-11-02T13:46:35;3.40;;;1.40;;
769;SDS011;368;48.698;9.116;2022-11-02T13:49:23;2.80;;;1.57;;
769;SDS011;368;48.698;9.116;2022-11-02T13:51:55;3.17;;;1.50;;
769;SDS011;368;48.698;9.116;2022-11-02T13:54:26;2.63;;;1.80;;
769;SDS011;368;48.698;9.116;2022-11-02T13:56:55;4.40;;;1.50;;
769;SDS011;368;48.698;9.116;2022-11-02T13:59:25;4.00;;;1.73;;
769;SDS011;368;48.698;9.116;2022-11-02T14:01:54;2.57;;;1.40;;
769;SDS011;368;48.698;9.116;2022-11-02T14:04:24;4.77;;;1.30;;
769;SDS011;368;48.698;9.116;2022-11-02T14:06:52;5.13;;;1.70;;
769;SDS011;368;48.698;9.116;2022-11-02T14:09:27;4.50;;;1.47;;
769;SDS011;368;48.698;9.116;2022-11-02T14:12:17;4.77;;;1.40;;
769;SDS011;368;48.698;9.116;2022-11-02T14:18:12;4.97;;;1.70;;
769;SDS011;368;48.698;9.116;2022-11-02T14:20:41;3.40;;;1.70;;
769;SDS011;368;48.698;9.116;2022-11-02T14:26:01;5.40;;;2.27;;
769;SDS011;368;48.698;9.116;2022-11-02T14:28:32;3.10;;;1.20;;
769;SDS011;368;48.698;9.116;2022-11-02T14:34:08;5.07;;;1.30;;
769;SDS011;368;48.698;9.116;2022-11-02T14:37:02;2.93;;;1.50;;
769;SDS011;368;48.698;9.116;2022-11-02T14:39:57;3.70;;;1.40;;
769;SDS011;368;48.698;9.116;2022-11-02T14:42:32;6.07;;;1.53;;
769;SDS011;368;48.698;9.116;2022-11-02T14:48:02;5.87;;;1.87;;
769;SDS011;368;48.698;9.116;2022-11-02T14:50:31;3.23;;;1.40;;
769;SDS011;368;48.698;9.116;2022-11-02T14:53:00;4.10;;;1.87;;
769;SDS011;368;48.698;9.116;2022-11-02T14:55:32;7.00;;;1.70;;
769;SDS011;368;48.698;9.116;2022-11-02T14:58:01;3.80;;;1.50;;
769;SDS011;368;48.698;9.116;2022-11-02T15:00:32;5.67;;;1.80;;
769;SDS011;368;48.698;9.116;2022-11-02T15:03:03;8.00;;;2.53;;
769;SDS011;368;48.698;9.116;2022-11-02T15:05:32;3.80;;;1.40;;
769;SDS011;368;48.698;9.116;2022-11-02T15:08:02;4.13;;;1.87;;
769;SDS011;368;48.698;9.116;2022-11-02T15:10:36;5.60;;;1.73;;
769;SDS011;368;48.698;9.116;2022-11-02T15:13:32;19.97;;;3.27;;
769;SDS011;368;48.698;9.116;2022-11-02T15:16:22;6.00;;;1.77;;
769;SDS011;368;48.698;9.116;2022-11-02T15:18:49;8.90;;;2.00;;
769;SDS011;368;48.698;9.116;2022-11-02T15:21:21;4.63;;;1.97;;
769;SDS011;368;48.698;9.116;2022-11-02T15:23:50;5.10;;;1.30;;
769;SDS011;368;48.698;9.116;2022-11-02T15:26:26;5.07;;;1.93;;
769;SDS011;368;48.698;9.116;2022-11-02T15:28:57;4.00;;;1.30;;
769;SDS011;368;48.698;9.116;2022-11-02T15:31:27;4.27;;;1.70;;
769;SDS011;368;48.698;9.116;2022-11-02T15:33:56;5.83;;;1.63;;
769;SDS011;368;48.698;9.116;2022-11-02T15:36:26;3.23;;;1.70;;
769;SDS011;368;48.698;9.116;2022-11-02T15:38:57;3.10;;;1.90;;
769;SDS011;368;48.698;9.116;2022-11-02T15:41:30;6.60;;;2.10;;
769;SDS011;368;48.698;9.116;2022-11-02T15:44:06;24.53;;;4.10;;
769;SDS011;368;48.698;9.116;2022-11-02T15:46:47;5.13;;;2.57;;
769;SDS011;368;48.698;9.116;2022-11-02T15:49:30;5.40;;;1.80;;
769;SDS011;368;48.698;9.116;2022-11-02T15:52:25;5.53;;;1.90;;
769;SDS011;368;48.698;9.116;2022-11-02T15:55:07;3.97;;;1.40;;
769;SDS011;368;48.698;9.116;2022-11-02T15:57:45;5.90;;;1.70;;
769;SDS011;368;48.698;9.116;2022-11-02T16:00:17;4.17;;;1.77;;
769;SDS011;368;48.698;9.116;2022-11-02T16:02:46;6.83;;;1.90;;
769;SDS011;368;48.698;9.116;2022-11-02T16:05:15;5.07;;;1.87;;
769;SDS011;368;48.698;9.116;2022-11-02T16:07:47;12.73;;;3.37;;
769;SDS011;368;48.698;9.116;2022-11-02T16:10:20;18.10;;;4.47;;
769;SDS011;368;48.698;9.116;2022-11-02T16:12:58;16.93;;;3.73;;
769;SDS011;368;48.698;9.116;2022-11-02T16:15:26;5.10;;;1.90;;
769;SDS011;368;48.698;9.116;2022-11-02T16:17:53;10.63;;;2.47;;
769;SDS011;368;48.698;9.116;2022-11-02T16:20:23;8.73;;;2.10;;
769;SDS011;368;48.698;9.116;2022-11-02T16:22:52;7.97;;;2.17;;
769;SDS011;368;48.698;9.116;2022-11-02T16:25:29;6.10;;;2.50;;
769;SDS011;368;48.698;9.116;2022-11-02T16:28:08;5.27;;;2.00;;